Ryegate, MT (59074)

9:44 AM MDT on July 13, 2014 (GMT -0600)
Billings Logan International (KBIL) Elev 3570 ft | 45.81 °N, 108.54 °W | Change Station

Current weather conditions updated 51 minutes ago

Clear
Clear
67 °F
Feels Like 67 °F
N
10
Wind Variable Wind from SW

Today is forecast to be nearly the same temperature as yesterday.

Today
High -- | Low -- °F
--% Chance of Precip.
Yesterday
High -- | Low -- °F
Precip. -- in
5:38 AM 9:07 PM
Full, 98% visible
Pressure 30.17 in
Visibility 10.0 miles
Clouds Clear
Dew Point 49 °F
Humidity 52%
Rainfall 0.00 in
Snow Depth Not available.
UV 3 out of 12
Pollen 5.00 out of 12
Air Quality Not available.
Flu Activity Sporadic
METAR KBIL 131453Z 23009KT 10SM CLR 19/09 A3026 RMK A02 SLP217 T01940094 53005

More Conditions Fewer Conditions

Pressure 30.17 in
Visibility 10.0 miles
Clouds Clear
Dew Point 49 °F
Humidity 52%
Rainfall 0.00 in
Snow Depth Not available.
UV 3 out of 12
Pollen 5.00 out of 12
Air Quality Not available.
Flu Activity Sporadic
METAR KBIL 131453Z 23009KT 10SM CLR 19/09 A3026 RMK A02 SLP217 T01940094 53005

More Conditions Fewer Conditions

10-Day Weather Forecast

Almanac

Astronomy

Jul. 13, 2014 Rise Set
Actual Time 5:38 AM MDT 9:07 PM MDT
Civil Twilight 5:00 AM MDT 9:44 PM MDT
Nautical Twilight 4:11 AM MDT 10:33 PM MDT
Astronomical Twilight 3:06 AM MDT 11:38 PM MDT
Moon 9:47 PM MDT 7:20 AM MDT
Length of Visible Light 16h 43m
Length of Day
15h 28m
Tomorrow will be 1m 39s shorter.
Full, 98% of the Moon is Illuminated
Today
Full
Jul 18
Last Quarter
Jul 26
New
Aug 3
First Quarter
Aug 10
Full

Today's Extremes

State Highs State Lows

Community

WunderPhotos

Upload Photos

1,733,257 photos uploaded!

Nearby

Snow Depth

Station Depth Elevation
Crystal Lake 0 in 6050 ft
Daisy Peak 0 in 7600 ft
South Fork Shields 0 in 8100 ft
Porcupine 1 in 6500 ft
Placer Basin 0 in 8830 ft

Earthquake Activity

City Distance Mag. Time & Date
Old Faithful Geyser, Wyoming 135 miles 2.5 9:54 AM MDT
2014-07-06
Old Faithful Geyser, Wyoming 136 miles 2.5 9:46 AM MDT
2014-07-06
Minimum magnitude displayed is 2.5.

Coastal Water Temperatures

Place Temperature
No Stations Reporting

Nearby Weather Stations

There are no personal weather stations in this area.